Time;durP1;ratioP1;P1;durP2;ratioP2;P2;SDS_P1;SDS_P2;PMS_P1;PMS_P2;Temp;Humidity;BMP_temperature;BMP_pressure;BME280_temperature;BME280_humidity;BME280_pressure;Samples;Min_cycle;Max_cycle;Signal;HPM_P1;HPM_P2
2022/03/13 00:01:42;;;;;;;3.88;2.90;;;11.00;99.90;;;;;;4983557;28;36254;-76
2022/03/13 00:04:09;;;;;;;4.28;2.80;;;11.00;99.90;;;;;;4986086;28;38934;-78
2022/03/13 00:06:38;;;;;;;2.67;2.47;;;11.00;99.90;;;;;;4985226;28;37199;-77
2022/03/13 00:09:12;;;;;;;3.00;2.65;;;11.00;99.90;;;;;;4968051;28;39767;-75
2022/03/13 00:11:39;;;;;;;4.00;2.60;;;10.90;99.90;;;;;;4986177;28;38483;-76
2022/03/13 00:14:05;;;;;;;2.50;2.30;;;10.90;99.90;;;;;;4965237;28;40031;-78
2022/03/13 00:16:32;;;;;;;4.38;2.90;;;10.90;99.90;;;;;;4964610;28;39606;-77
2022/03/13 00:18:59;;;;;;;3.53;2.90;;;10.90;99.90;;;;;;4987360;28;39348;-76
2022/03/13 00:21:25;;;;;;;3.22;2.30;;;10.90;99.90;;;;;;4968794;28;38801;-76
2022/03/13 00:23:51;;;;;;;3.28;2.60;;;10.90;99.90;;;;;;4983534;28;38850;-76
2022/03/13 00:26:18;;;;;;;3.05;2.63;;;10.90;99.90;;;;;;4986881;28;38134;-76
2022/03/13 00:28:46;;;;;;;3.88;2.88;;;10.90;99.90;;;;;;4985421;28;40822;-76
2022/03/13 00:31:13;;;;;;;4.35;2.75;;;10.90;99.90;;;;;;4987393;28;38573;-76
2022/03/13 00:33:39;;;;;;;3.90;2.85;;;10.90;99.90;;;;;;4969849;28;37679;-76
2022/03/13 00:36:07;;;;;;;3.60;3.00;;;10.90;99.90;;;;;;4985690;28;37687;-75
2022/03/13 00:38:33;;;;;;;3.20;2.90;;;11.00;99.90;;;;;;4988617;28;40676;-76
2022/03/13 00:40:59;;;;;;;6.25;3.72;;;11.00;99.90;;;;;;4986563;28;39911;-76
2022/03/13 00:43:28;;;;;;;5.00;2.60;;;11.00;99.90;;;;;;4991872;28;38668;-80
2022/03/13 00:45:54;;;;;;;3.85;2.65;;;11.00;99.90;;;;;;4987348;28;37961;-77
2022/03/13 00:48:21;;;;;;;2.78;2.45;;;11.00;99.90;;;;;;4988028;28;38776;-77
2022/03/13 00:50:47;;;;;;;2.80;2.30;;;11.00;99.90;;;;;;4988926;28;39738;-79
2022/03/13 00:53:16;;;;;;;2.80;2.42;;;11.00;99.90;;;;;;4986347;28;37665;-76
2022/03/13 00:55:42;;;;;;;3.83;2.80;;;11.00;99.90;;;;;;4990011;28;37562;-77
2022/03/13 00:58:08;;;;;;;4.30;2.72;;;11.00;99.90;;;;;;4983937;28;39445;-76
2022/03/13 01:00:34;;;;;;;4.22;2.80;;;11.00;99.90;;;;;;4967480;28;38734;-79
2022/03/13 01:03:01;;;;;;;3.85;2.33;;;11.00;99.90;;;;;;4984495;28;36627;-76
2022/03/13 01:05:28;;;;;;;3.08;2.47;;;11.00;99.90;;;;;;4987307;28;48938;-77
2022/03/13 01:07:56;;;;;;;4.90;2.65;;;11.10;99.90;;;;;;4988834;28;39508;-77
2022/03/13 01:10:23;;;;;;;3.45;2.47;;;11.00;99.90;;;;;;4985968;28;38644;-76
2022/03/13 01:12:52;;;;;;;3.58;2.60;;;11.00;99.90;;;;;;4980528;28;37866;-75
2022/03/13 01:15:19;;;;;;;3.17;2.78;;;11.00;99.90;;;;;;4966910;28;39099;-77
2022/03/13 01:17:45;;;;;;;5.97;2.60;;;11.00;99.90;;;;;;4982484;28;38521;-76
2022/03/13 01:20:21;;;;;;;3.17;2.47;;;11.00;99.90;;;;;;4981849;28;37274;-76
2022/03/13 01:22:49;;;;;;;3.75;2.58;;;11.00;99.90;;;;;;4964102;28;38434;-76
2022/03/13 01:25:16;;;;;;;3.53;2.40;;;11.00;99.90;;;;;;4984915;28;37702;-76
2022/03/13 01:27:42;;;;;;;3.05;2.58;;;10.90;99.90;;;;;;4983746;28;40839;-76
2022/03/13 01:30:09;;;;;;;4.30;2.70;;;10.90;99.90;;;;;;4964041;28;38978;-77
2022/03/13 01:32:35;;;;;;;3.58;2.60;;;11.00;99.90;;;;;;4965715;28;39272;-76
2022/03/13 01:35:02;;;;;;;3.67;2.85;;;11.00;99.90;;;;;;4984692;28;38671;-76
2022/03/13 01:37:33;;;;;;;3.83;2.78;;;11.00;99.90;;;;;;4982858;28;47204;-76
2022/03/13 01:40:08;;;;;;;2.10;1.92;;;11.00;99.90;;;;;;4965590;28;39009;-77
2022/03/13 01:42:35;;;;;;;3.08;2.40;;;11.00;99.90;;;;;;4984088;28;47718;-76
2022/03/13 01:45:03;;;;;;;3.13;2.72;;;11.00;99.90;;;;;;4991143;28;38784;-76
2022/03/13 01:47:29;;;;;;;3.42;2.60;;;11.00;99.90;;;;;;4966828;28;47209;-76
2022/03/13 01:49:56;;;;;;;4.50;2.55;;;11.00;99.90;;;;;;4989903;28;39409;-76
2022/03/13 01:52:28;;;;;;;3.47;2.53;;;11.00;99.90;;;;;;4987959;28;38855;-77
2022/03/13 01:54:56;;;;;;;3.30;2.55;;;11.00;99.90;;;;;;4964685;28;38019;-77
2022/03/13 01:57:22;;;;;;;3.90;2.58;;;11.00;99.90;;;;;;4993977;28;39614;-76
2022/03/13 01:59:51;;;;;;;3.40;2.70;;;10.90;99.90;;;;;;4991548;28;40310;-78
2022/03/13 02:02:19;;;;;;;6.00;2.50;;;11.00;99.90;;;;;;4988032;28;37964;-76
2022/03/13 02:04:51;;;;;;;4.05;2.63;;;11.00;99.90;;;;;;4979904;28;37998;-77
2022/03/13 02:07:17;;;;;;;3.22;2.78;;;11.00;99.90;;;;;;4983075;28;38439;-76
2022/03/13 02:09:46;;;;;;;3.15;2.70;;;11.00;99.90;;;;;;4966574;28;39141;-75
2022/03/13 02:12:12;;;;;;;3.88;2.75;;;11.00;99.90;;;;;;4981509;28;38208;-76
2022/03/13 02:14:39;;;;;;;3.28;2.42;;;10.90;99.90;;;;;;4961039;28;39035;-77
2022/03/13 02:17:05;;;;;;;3.00;2.50;;;10.90;99.90;;;;;;4980290;28;37717;-76
2022/03/13 02:19:31;;;;;;;3.05;2.30;;;10.90;99.90;;;;;;4985207;28;35026;-76
2022/03/13 02:21:59;;;;;;;2.40;2.05;;;10.80;99.90;;;;;;4975905;28;38719;-76
2022/03/13 02:24:26;;;;;;;3.50;2.65;;;10.80;99.90;;;;;;4986793;28;36293;-76
2022/03/13 02:27:06;;;;;;;3.17;2.80;;;10.80;99.90;;;;;;4985692;28;38778;-76
2022/03/13 02:29:32;;;;;;;3.15;2.47;;;10.80;99.90;;;;;;4968439;28;47318;-76
2022/03/13 02:32:00;;;;;;;3.03;2.55;;;10.80;99.90;;;;;;4969375;28;38486;-76
2022/03/13 02:34:27;;;;;;;3.92;2.80;;;10.80;99.90;;;;;;4983466;28;38834;-78
2022/03/13 02:37:00;;;;;;;3.05;2.40;;;10.70;99.90;;;;;;4978694;28;38649;-75
2022/03/13 02:39:26;;;;;;;2.60;2.33;;;10.70;99.90;;;;;;4981675;28;40982;-77
2022/03/13 02:41:52;;;;;;;3.25;2.75;;;10.70;99.90;;;;;;4967604;28;37169;-76
2022/03/13 02:44:19;;;;;;;3.17;2.55;;;10.70;99.90;;;;;;4981217;28;38318;-75
2022/03/13 02:46:52;;;;;;;3.53;2.88;;;10.70;99.90;;;;;;4983381;28;39074;-76
2022/03/13 02:49:20;;;;;;;3.58;2.63;;;10.70;99.90;;;;;;4986294;28;36830;-76
2022/03/13 02:51:48;;;;;;;3.50;2.97;;;10.70;99.90;;;;;;4985396;28;38288;-76
2022/03/13 02:54:15;;;;;;;3.55;2.80;;;10.70;99.90;;;;;;4985329;28;37072;-76
2022/03/13 02:56:42;;;;;;;3.95;2.70;;;10.70;99.90;;;;;;4969383;28;38043;-77
2022/03/13 02:59:09;;;;;;;3.08;2.55;;;10.70;99.90;;;;;;4984269;28;40114;-78
2022/03/13 03:01:37;;;;;;;4.90;3.17;;;10.60;99.90;;;;;;4980411;28;38442;-76
2022/03/13 03:04:03;;;;;;;4.07;3.25;;;10.70;99.90;;;;;;4981641;28;39064;-76
2022/03/13 03:06:31;;;;;;;3.22;2.67;;;10.70;99.90;;;;;;4982982;28;48178;-76
2022/03/13 03:08:58;;;;;;;5.22;3.25;;;10.70;99.90;;;;;;4985665;28;40036;-77
2022/03/13 03:11:24;;;;;;;3.92;3.10;;;10.60;99.90;;;;;;4966783;28;39082;-75
2022/03/13 03:13:50;;;;;;;4.93;3.20;;;10.60;99.90;;;;;;4984418;28;38363;-78
2022/03/13 03:16:16;;;;;;;4.40;3.35;;;10.60;99.90;;;;;;4972258;28;37668;-77
2022/03/13 03:18:42;;;;;;;3.95;3.10;;;10.60;99.90;;;;;;4990198;28;39040;-76
2022/03/13 03:21:08;;;;;;;3.30;2.70;;;10.60;99.90;;;;;;4989034;28;39858;-76
2022/03/13 03:23:34;;;;;;;3.72;3.22;;;10.60;99.90;;;;;;4985449;28;35922;-76
2022/03/13 03:26:01;;;;;;;3.97;3.08;;;10.60;99.90;;;;;;4989631;28;36732;-76
2022/03/13 03:28:27;;;;;;;4.97;2.97;;;10.60;99.90;;;;;;4989114;28;48903;-76
2022/03/13 03:30:53;;;;;;;3.53;3.13;;;10.60;99.90;;;;;;4983252;28;39014;-76
2022/03/13 03:33:19;;;;;;;4.22;3.20;;;10.50;99.90;;;;;;4985978;28;38909;-76
2022/03/13 03:35:45;;;;;;;4.57;3.35;;;10.50;99.90;;;;;;4985483;28;39311;-77
2022/03/13 03:38:11;;;;;;;3.20;2.90;;;10.50;99.90;;;;;;4990630;28;38267;-77
2022/03/13 03:40:37;;;;;;;3.90;2.72;;;10.50;99.90;;;;;;4977016;28;38538;-75
2022/03/13 03:43:05;;;;;;;4.05;3.05;;;10.50;99.90;;;;;;4983171;28;37362;-77
2022/03/13 03:45:31;;;;;;;5.65;3.30;;;10.50;99.90;;;;;;4990535;28;38832;-76
2022/03/13 03:47:58;;;;;;;4.97;2.92;;;10.50;99.90;;;;;;4986043;28;38829;-77
2022/03/13 03:50:25;;;;;;;3.78;3.00;;;10.50;99.90;;;;;;4971209;28;37345;-77
2022/03/13 03:52:55;;;;;;;3.90;3.00;;;10.50;99.90;;;;;;4982904;28;36859;-77
2022/03/13 03:55:22;;;;;;;3.73;2.97;;;10.50;99.90;;;;;;4970586;28;38535;-77
2022/03/13 03:57:49;;;;;;;4.57;2.85;;;10.50;99.90;;;;;;4968796;28;39112;-77
2022/03/13 04:00:15;;;;;;;3.35;2.95;;;10.50;99.90;;;;;;4971353;28;37617;-77
2022/03/13 04:02:42;;;;;;;3.75;3.00;;;10.50;99.90;;;;;;4968695;28;39068;-78
2022/03/13 04:05:10;;;;;;;3.33;3.00;;;10.50;99.90;;;;;;4971665;28;40883;-76
2022/03/13 04:07:37;;;;;;;6.20;2.77;;;10.50;99.90;;;;;;4968323;28;38552;-77
2022/03/13 04:10:10;;;;;;;4.03;3.00;;;10.50;99.90;;;;;;4968175;28;39330;-76
2022/03/13 04:12:36;;;;;;;4.13;2.90;;;10.40;99.90;;;;;;4968566;28;37199;-76
2022/03/13 04:15:03;;;;;;;3.85;3.28;;;10.40;99.90;;;;;;4970507;28;38706;-76
2022/03/13 04:17:30;;;;;;;3.75;2.95;;;10.30;99.90;;;;;;4967175;28;39714;-76
2022/03/13 04:19:56;;;;;;;4.25;3.25;;;10.30;99.90;;;;;;4968795;28;37963;-77
2022/03/13 04:22:23;;;;;;;3.67;3.17;;;10.30;99.90;;;;;;4968503;28;37001;-76
2022/03/13 04:24:49;;;;;;;3.78;3.22;;;10.20;99.90;;;;;;4967667;28;39745;-76
2022/03/13 04:27:15;;;;;;;5.45;3.33;;;10.20;99.90;;;;;;4965628;28;39109;-76
2022/03/13 04:29:41;;;;;;;4.40;3.72;;;10.10;99.90;;;;;;4961591;28;38617;-77
2022/03/13 04:32:08;;;;;;;5.33;3.90;;;10.10;99.90;;;;;;4964247;28;37200;-76
2022/03/13 04:34:35;;;;;;;5.23;3.57;;;10.00;99.90;;;;;;4961610;28;37697;-76
2022/03/13 04:37:03;;;;;;;4.13;3.42;;;9.90;99.90;;;;;;4963585;28;38935;-76
2022/03/13 04:39:35;;;;;;;4.05;3.60;;;9.90;99.90;;;;;;4966353;28;47747;-76
2022/03/13 04:42:05;;;;;;;4.45;3.90;;;9.80;99.90;;;;;;4958946;28;37638;-76
2022/03/13 04:44:32;;;;;;;5.35;3.88;;;9.80;99.90;;;;;;4962853;28;46829;-76
2022/03/13 04:46:59;;;;;;;7.35;4.30;;;9.80;99.90;;;;;;4968126;28;38493;-76
2022/03/13 04:49:25;;;;;;;6.57;4.25;;;9.80;99.90;;;;;;4962950;28;38494;-76
2022/03/13 04:51:51;;;;;;;6.10;4.40;;;9.70;99.90;;;;;;4962790;28;37738;-77
2022/03/13 04:54:18;;;;;;;6.32;4.43;;;9.70;99.90;;;;;;4965547;28;38848;-77
2022/03/13 04:56:44;;;;;;;5.32;4.50;;;9.70;99.90;;;;;;4965365;28;40414;-77
2022/03/13 04:59:12;;;;;;;7.95;5.82;;;9.60;99.90;;;;;;4964184;28;38120;-76
2022/03/13 05:01:38;;;;;;;6.32;4.95;;;9.60;99.90;;;;;;4944379;28;37682;-76
2022/03/13 05:04:05;;;;;;;7.83;5.20;;;9.50;99.90;;;;;;4964385;28;39747;-76
2022/03/13 05:06:35;;;;;;;7.20;5.23;;;9.50;99.90;;;;;;4967821;28;38119;-76
2022/03/13 05:09:02;;;;;;;6.87;5.43;;;9.50;99.90;;;;;;4964668;28;39899;-76
2022/03/13 05:11:28;;;;;;;7.57;5.70;;;9.40;99.90;;;;;;4946421;28;47290;-76
2022/03/13 05:13:56;;;;;;;7.93;5.90;;;9.40;99.90;;;;;;4948463;28;39492;-77
2022/03/13 05:16:22;;;;;;;8.90;6.03;;;9.40;99.90;;;;;;4964768;28;40080;-77
2022/03/13 05:18:48;;;;;;;8.80;5.63;;;9.40;99.90;;;;;;4948916;28;38395;-77
2022/03/13 05:21:14;;;;;;;6.60;5.90;;;9.40;99.90;;;;;;4965525;28;36808;-76
2022/03/13 05:23:40;;;;;;;7.93;5.67;;;9.40;99.90;;;;;;4966045;28;38739;-77
2022/03/13 05:26:06;;;;;;;9.23;5.60;;;9.40;99.90;;;;;;4968490;28;38348;-79
2022/03/13 05:28:32;;;;;;;6.70;5.90;;;9.40;99.90;;;;;;4967388;28;38152;-76
2022/03/13 05:30:58;;;;;;;9.37;5.97;;;9.40;99.90;;;;;;4950797;28;36626;-77
2022/03/13 05:33:24;;;;;;;8.27;6.30;;;9.40;99.90;;;;;;4966081;28;38799;-77
2022/03/13 05:35:51;;;;;;;7.57;5.77;;;9.40;99.90;;;;;;4965342;28;39862;-76
2022/03/13 05:38:17;;;;;;;7.83;6.03;;;9.40;99.90;;;;;;4962078;28;39600;-77
2022/03/13 05:40:43;;;;;;;8.33;6.13;;;9.40;99.90;;;;;;4965270;28;37486;-76
2022/03/13 05:43:12;;;;;;;7.60;5.97;;;9.50;99.90;;;;;;4965443;28;38912;-76
2022/03/13 05:45:39;;;;;;;8.73;6.47;;;9.50;99.90;;;;;;4947703;28;38616;-76
2022/03/13 05:48:13;;;;;;;8.93;6.50;;;9.50;99.90;;;;;;4967796;28;39202;-76
2022/03/13 05:50:39;;;;;;;9.37;6.87;;;9.50;99.90;;;;;;4964462;28;38336;-76
2022/03/13 05:53:05;;;;;;;8.97;6.83;;;9.50;99.90;;;;;;4963873;28;38711;-75
2022/03/13 05:55:31;;;;;;;10.93;6.57;;;9.50;99.90;;;;;;4982125;28;39937;-76
2022/03/13 05:57:58;;;;;;;10.03;6.70;;;9.50;99.90;;;;;;4985252;28;38313;-76
2022/03/13 06:00:26;;;;;;;10.23;7.17;;;9.50;99.90;;;;;;4975271;28;36743;-76
2022/03/13 06:02:53;;;;;;;7.60;6.10;;;9.50;99.90;;;;;;4984557;28;38962;-77
2022/03/13 06:05:20;;;;;;;10.10;7.07;;;9.50;99.90;;;;;;4962799;28;38272;-76
2022/03/13 06:07:48;;;;;;;8.70;6.50;;;9.50;99.90;;;;;;4977945;28;38254;-76
2022/03/13 06:10:15;;;;;;;8.73;6.67;;;9.50;99.90;;;;;;4977961;28;37088;-76
2022/03/13 06:12:41;;;;;;;8.17;6.43;;;9.40;99.90;;;;;;4979936;28;38852;-76
2022/03/13 06:15:09;;;;;;;8.53;6.83;;;9.40;99.90;;;;;;4973805;28;38369;-76
2022/03/13 06:17:40;;;;;;;10.27;7.23;;;9.40;99.90;;;;;;4980512;28;38198;-77
2022/03/13 06:20:07;;;;;;;10.23;7.50;;;9.40;99.90;;;;;;4975961;28;37718;-76
2022/03/13 06:22:34;;;;;;;10.37;7.60;;;9.40;99.90;;;;;;4979522;28;38763;-78
2022/03/13 06:25:00;;;;;;;12.83;7.70;;;9.30;99.90;;;;;;4959189;28;39192;-77
2022/03/13 06:27:27;;;;;;;11.30;7.33;;;9.30;99.90;;;;;;4979317;28;38363;-77
2022/03/13 06:29:53;;;;;;;12.57;8.13;;;9.30;99.90;;;;;;4986008;28;38760;-77
2022/03/13 06:32:19;;;;;;;9.27;7.20;;;9.30;99.90;;;;;;4984138;28;38672;-76
2022/03/13 06:34:45;;;;;;;8.60;6.87;;;9.20;99.90;;;;;;4979901;28;38775;-76
2022/03/13 06:37:11;;;;;;;8.03;6.03;;;9.20;99.90;;;;;;4983220;28;36400;-76
2022/03/13 06:39:38;;;;;;;8.60;7.20;;;9.10;99.90;;;;;;4980344;28;38638;-76
2022/03/13 06:42:04;;;;;;;8.83;6.97;;;9.10;99.90;;;;;;4976148;28;39579;-76
2022/03/13 06:44:30;;;;;;;8.23;6.27;;;9.00;99.90;;;;;;4962934;28;40197;-77
2022/03/13 06:46:56;;;;;;;10.40;6.83;;;9.00;99.90;;;;;;4987011;28;36712;-78
2022/03/13 06:49:22;;;;;;;7.13;6.27;;;8.90;99.90;;;;;;4988075;28;36900;-76
2022/03/13 06:51:48;;;;;;;7.40;6.33;;;8.90;99.90;;;;;;4987309;28;38920;-78
2022/03/13 06:54:15;;;;;;;8.37;7.10;;;8.80;99.90;;;;;;4976298;28;39920;-77
2022/03/13 06:56:42;;;;;;;10.93;7.43;;;8.70;99.90;;;;;;4965370;28;37565;-79
2022/03/13 06:59:08;;;;;;;8.73;7.27;;;8.70;99.90;;;;;;4964523;28;37379;-76
2022/03/13 07:01:36;;;;;;;9.87;7.30;;;8.80;99.90;;;;;;4981827;28;39301;-79
2022/03/13 07:04:02;;;;;;;10.67;7.77;;;8.70;99.90;;;;;;4964898;28;39754;-76
2022/03/13 07:06:28;;;;;;;14.30;9.13;;;8.70;99.90;;;;;;4980701;28;46168;-76
2022/03/13 07:08:55;;;;;;;10.57;8.20;;;8.80;99.90;;;;;;4961830;28;37183;-78
2022/03/13 07:11:22;;;;;;;11.50;8.63;;;8.80;99.90;;;;;;4960915;28;38787;-78
2022/03/13 07:13:48;;;;;;;11.30;8.73;;;8.90;99.90;;;;;;4978055;28;39509;-78
2022/03/13 07:16:17;;;;;;;12.77;8.97;;;9.00;99.90;;;;;;4961383;28;39497;-78
2022/03/13 07:18:44;;;;;;;11.60;8.57;;;9.10;99.90;;;;;;4960656;28;36234;-75
2022/03/13 07:21:10;;;;;;;11.30;9.33;;;9.10;99.90;;;;;;4960781;28;36750;-76
2022/03/13 07:23:38;;;;;;;12.53;9.37;;;9.10;99.90;;;;;;4964390;28;38754;-78
2022/03/13 07:26:04;;;;;;;12.90;9.17;;;9.20;99.90;;;;;;4959849;28;38499;-75
2022/03/13 07:28:30;;;;;;;14.20;10.17;;;9.20;99.90;;;;;;4960823;28;38100;-79
2022/03/13 07:30:57;;;;;;;12.80;10.23;;;9.30;99.90;;;;;;4960426;28;38934;-78
2022/03/13 07:33:24;;;;;;;17.67;11.90;;;9.40;99.90;;;;;;4963956;28;39083;-78
2022/03/13 07:35:50;;;;;;;15.47;10.50;;;9.50;99.90;;;;;;4963545;28;38263;-78
2022/03/13 07:38:16;;;;;;;13.77;11.03;;;9.50;99.90;;;;;;4960756;28;36311;-76
2022/03/13 07:40:44;;;;;;;14.67;11.03;;;9.50;99.90;;;;;;4961967;28;39873;-78
2022/03/13 07:43:10;;;;;;;17.17;11.67;;;9.50;99.90;;;;;;4960109;28;38506;-77
2022/03/13 07:45:37;;;;;;;16.53;11.57;;;9.40;99.90;;;;;;4976141;28;37041;-75
2022/03/13 07:48:03;;;;;;;16.47;11.90;;;9.50;99.90;;;;;;4965621;28;37212;-76
2022/03/13 07:50:30;;;;;;;14.70;11.40;;;9.40;99.90;;;;;;4972913;28;38495;-76
2022/03/13 07:52:56;;;;;;;15.30;12.17;;;9.50;99.90;;;;;;4968313;28;39249;-76
2022/03/13 07:55:24;;;;;;;17.73;13.30;;;9.70;99.90;;;;;;4981305;28;39121;-75
2022/03/13 07:57:50;;;;;;;18.27;12.30;;;9.80;99.90;;;;;;4980023;28;38391;-77
2022/03/13 08:00:17;;;;;;;16.57;12.37;;;10.00;99.90;;;;;;4982810;28;38972;-76
2022/03/13 08:02:52;;;;;;;16.20;12.35;;;10.10;99.90;;;;;;4982378;28;39501;-76
2022/03/13 08:05:19;;;;;;;19.52;13.02;;;10.10;99.90;;;;;;4953358;28;39015;-76
2022/03/13 08:07:46;;;;;;;17.60;13.13;;;10.10;99.90;;;;;;4954532;28;36334;-77
2022/03/13 08:10:12;;;;;;;16.97;12.60;;;10.20;99.90;;;;;;4973573;28;39910;-75
2022/03/13 08:12:39;;;;;;;19.23;13.23;;;10.30;99.90;;;;;;4963509;28;39191;-75
2022/03/13 08:15:09;;;;;;;18.67;13.48;;;10.30;99.90;;;;;;4967641;28;37054;-75
2022/03/13 08:17:35;;;;;;;18.08;13.63;;;10.40;99.90;;;;;;4976382;28;37095;-75
2022/03/13 08:20:08;;;;;;;20.55;14.82;;;10.50;99.90;;;;;;4975784;28;40484;-75
2022/03/13 08:22:35;;;;;;;18.13;13.60;;;10.50;99.90;;;;;;4978600;28;47681;-76
2022/03/13 08:25:01;;;;;;;20.67;13.55;;;10.50;99.90;;;;;;4983165;28;38104;-76
2022/03/13 08:27:27;;;;;;;19.10;13.85;;;10.60;99.90;;;;;;4979624;28;48665;-75
2022/03/13 08:29:53;;;;;;;18.83;14.10;;;10.60;99.90;;;;;;4985862;28;38629;-75
2022/03/13 08:32:19;;;;;;;22.58;15.52;;;10.80;99.90;;;;;;4971850;28;37600;-76
2022/03/13 08:34:46;;;;;;;20.77;15.43;;;10.80;99.90;;;;;;4988252;28;38537;-75
2022/03/13 08:37:13;;;;;;;19.33;15.15;;;11.00;99.90;;;;;;4984810;28;36618;-75
2022/03/13 08:39:39;;;;;;;21.85;15.40;;;11.00;99.90;;;;;;4982275;28;37686;-75
2022/03/13 08:42:06;;;;;;;20.27;15.18;;;11.10;99.90;;;;;;4983288;28;38484;-74
2022/03/13 08:44:32;;;;;;;20.60;14.95;;;11.20;99.90;;;;;;4982461;28;39116;-77
2022/03/13 08:46:58;;;;;;;22.38;14.68;;;11.30;99.90;;;;;;4985147;28;37558;-75
2022/03/13 08:49:25;;;;;;;24.58;15.70;;;11.30;99.90;;;;;;4972072;28;37698;-75
2022/03/13 08:51:51;;;;;;;20.58;14.77;;;11.40;99.90;;;;;;4985012;28;38440;-76
2022/03/13 08:54:18;;;;;;;21.15;15.38;;;11.50;99.90;;;;;;4980873;28;38038;-75
2022/03/13 08:56:45;;;;;;;19.08;14.70;;;11.50;99.90;;;;;;4968237;28;37749;-77
2022/03/13 08:59:11;;;;;;;18.88;14.93;;;11.60;99.90;;;;;;4968734;28;39303;-75
2022/03/13 09:01:37;;;;;;;19.48;14.75;;;11.70;99.90;;;;;;4966276;28;38199;-76
2022/03/13 09:04:04;;;;;;;20.85;14.75;;;11.70;99.90;;;;;;4964229;28;39341;-76
2022/03/13 09:06:30;;;;;;;19.13;14.70;;;11.80;99.90;;;;;;4971251;28;37463;-76
2022/03/13 09:08:57;;;;;;;17.83;14.13;;;11.80;99.90;;;;;;4968136;28;37932;-76
2022/03/13 09:11:23;;;;;;;19.25;14.40;;;11.80;99.90;;;;;;4959780;28;40053;-76
2022/03/13 09:13:50;;;;;;;19.35;14.07;;;12.00;99.90;;;;;;4965259;28;39803;-76
2022/03/13 09:16:16;;;;;;;20.70;14.15;;;11.90;99.90;;;;;;4963294;28;37611;-77
2022/03/13 09:18:42;;;;;;;18.02;12.77;;;12.00;99.90;;;;;;4964445;28;39280;-76
2022/03/13 09:21:08;;;;;;;20.88;14.25;;;12.10;99.90;;;;;;4963082;28;39239;-77
2022/03/13 09:23:36;;;;;;;17.23;13.65;;;12.20;99.90;;;;;;4977603;28;38191;-77
2022/03/13 09:26:04;;;;;;;15.25;12.63;;;12.30;99.90;;;;;;4966057;28;38554;-78
2022/03/13 09:28:30;;;;;;;18.20;13.85;;;12.20;99.90;;;;;;4962670;28;39088;-76
2022/03/13 09:30:57;;;;;;;16.17;11.85;;;12.30;99.90;;;;;;4959578;28;37407;-77
2022/03/13 09:33:23;;;;;;;17.42;13.27;;;12.40;99.90;;;;;;4962461;28;37991;-77
2022/03/13 09:35:51;;;;;;;14.68;12.20;;;12.40;99.90;;;;;;4964343;28;37706;-77
2022/03/13 09:38:17;;;;;;;16.33;12.25;;;12.60;99.90;;;;;;4984654;28;38974;-77
2022/03/13 09:40:45;;;;;;;16.13;12.27;;;12.60;99.90;;;;;;4962801;28;38207;-76
2022/03/13 09:43:11;;;;;;;17.38;11.45;;;12.70;99.90;;;;;;4971170;28;38289;-79
2022/03/13 09:45:37;;;;;;;15.32;11.27;;;12.80;99.90;;;;;;4971076;28;38171;-77
2022/03/13 09:48:08;;;;;;;15.45;11.75;;;12.70;99.90;;;;;;4967480;28;20051;-78
2022/03/13 09:50:34;;;;;;;16.45;12.18;;;12.80;99.90;;;;;;4946794;28;37749;-79
2022/03/13 09:53:01;;;;;;;15.07;11.00;;;12.80;99.90;;;;;;4966062;28;38172;-78
2022/03/13 09:55:27;;;;;;;14.40;10.75;;;13.00;99.90;;;;;;4978380;28;46293;-79
2022/03/13 09:57:53;;;;;;;16.00;11.65;;;13.00;99.90;;;;;;4977616;28;39507;-79
2022/03/13 10:00:24;;;;;;;15.35;10.80;;;13.20;99.90;;;;;;4990468;28;37043;-78
2022/03/13 10:02:53;;;;;;;17.08;12.15;;;13.10;99.90;;;;;;4976238;28;37832;-80
2022/03/13 10:05:21;;;;;;;13.57;10.98;;;13.20;99.90;;;;;;4980975;28;37382;-79
2022/03/13 10:07:56;;;;;;;15.48;11.25;;;13.40;99.90;;;;;;4985597;28;39024;-80
2022/03/13 10:10:25;;;;;;;15.18;10.70;;;13.60;99.90;;;;;;4985385;28;39786;-79
2022/03/13 10:12:51;;;;;;;14.23;11.15;;;13.50;99.90;;;;;;4989788;28;38600;-79
2022/03/13 10:15:18;;;;;;;12.90;9.98;;;13.50;99.90;;;;;;4978900;28;37000;-79
2022/03/13 10:17:44;;;;;;;12.77;9.73;;;13.70;99.90;;;;;;4960984;28;41552;-81
2022/03/13 10:20:23;;;;;;;16.50;9.75;;;13.80;99.90;;;;;;4980119;28;38144;-80
2022/03/13 10:22:59;;;;;;;10.65;9.30;;;13.80;99.90;;;;;;4961557;28;37225;-79
2022/03/13 10:25:33;;;;;;;14.18;10.20;;;13.90;99.90;;;;;;4984388;28;38513;-78
2022/03/13 10:28:13;;;;;;;12.02;9.43;;;13.90;99.90;;;;;;4970236;28;40634;-80
2022/03/13 10:30:40;;;;;;;12.45;9.73;;;13.90;99.90;;;;;;4981738;28;48973;-78
2022/03/13 10:33:08;;;;;;;11.40;9.10;;;14.00;99.90;;;;;;4980642;28;37122;-79
2022/03/13 10:35:39;;;;;;;11.93;8.23;;;14.20;99.90;;;;;;4981942;28;36932;-80
2022/03/13 10:38:23;;;;;;;12.73;8.32;;;14.10;99.90;;;;;;4965463;28;38790;-78
2022/03/13 10:40:56;;;;;;;11.13;9.25;;;14.40;99.90;;;;;;4965514;28;38964;-80
2022/03/13 10:43:26;;;;;;;12.30;8.95;;;14.50;99.90;;;;;;4985053;28;38180;-81
2022/03/13 10:45:54;;;;;;;12.07;9.52;;;14.70;99.90;;;;;;4965571;28;37655;-79
2022/03/13 10:48:28;;;;;;;13.70;9.25;;;14.70;99.90;;;;;;4990948;28;38730;-79
2022/03/13 10:50:57;;;;;;;10.85;8.98;;;14.30;99.90;;;;;;4978602;28;38435;-77
2022/03/13 10:53:27;;;;;;;14.07;9.32;;;14.60;99.90;;;;;;4974893;28;38184;-80
2022/03/13 10:56:02;;;;;;;9.15;8.13;;;15.00;99.90;;;;;;4985951;28;36291;-80
2022/03/13 10:58:29;;;;;;;11.57;8.73;;;15.20;99.90;;;;;;4975665;28;47358;-81
2022/03/13 11:01:10;;;;;;;11.07;8.13;;;15.10;99.90;;;;;;4969579;28;38657;-82
2022/03/13 11:03:55;;;;;;;9.95;7.80;;;14.80;99.90;;;;;;4962887;28;47276;-82
2022/03/13 11:06:23;;;;;;;8.77;6.97;;;14.90;99.90;;;;;;4981986;28;38667;-81
2022/03/13 11:08:53;;;;;;;10.65;7.72;;;14.70;99.90;;;;;;4973084;28;38856;-80
2022/03/13 11:11:20;;;;;;;10.07;7.95;;;14.70;99.90;;;;;;4971727;28;39713;-80
2022/03/13 11:13:52;;;;;;;9.85;7.45;;;14.80;99.90;;;;;;4968122;28;39684;-81
2022/03/13 11:16:26;;;;;;;10.25;7.68;;;15.00;99.90;;;;;;4987792;28;36114;-81
2022/03/13 11:18:55;;;;;;;13.45;9.30;;;14.90;99.90;;;;;;4971735;28;38721;-80
2022/03/13 11:21:22;;;;;;;11.65;8.30;;;14.80;99.90;;;;;;4965139;28;38056;-80
2022/03/13 11:23:49;;;;;;;12.82;8.38;;;15.10;99.90;;;;;;4982015;28;37783;-81
2022/03/13 11:26:18;;;;;;;11.07;8.48;;;15.30;99.90;;;;;;4969303;28;37039;-80
2022/03/13 11:28:45;;;;;;;11.20;8.43;;;15.30;99.90;;;;;;4978911;28;37842;-81
2022/03/13 11:31:29;;;;;;;10.18;8.50;;;15.40;99.90;;;;;;4966521;28;38303;-79
2022/03/13 11:34:16;;;;;;;10.80;8.25;;;15.40;99.90;;;;;;4977396;28;37503;-81
2022/03/13 11:36:51;;;;;;;11.05;8.90;;;15.30;99.90;;;;;;4962580;28;48720;-81
2022/03/13 11:39:30;;;;;;;10.65;8.65;;;15.50;99.90;;;;;;4983919;28;39199;-80
2022/03/13 11:41:57;;;;;;;10.45;8.18;;;15.50;99.90;;;;;;4975707;28;37589;-80
2022/03/13 11:44:28;;;;;;;10.23;8.45;;;15.60;99.90;;;;;;4964507;28;38160;-78
2022/03/13 11:46:56;;;;;;;12.93;9.00;;;15.80;99.90;;;;;;4962791;28;38939;-79
2022/03/13 11:49:31;;;;;;;12.02;8.23;;;15.70;99.90;;;;;;4986502;28;37723;-79
2022/03/13 11:52:18;;;;;;;8.95;7.65;;;15.70;99.90;;;;;;4976885;28;38562;-80
2022/03/13 11:54:47;;;;;;;10.80;8.50;;;15.50;99.90;;;;;;4985322;28;47857;-79
2022/03/13 11:57:14;;;;;;;11.85;8.18;;;15.60;99.90;;;;;;4973578;28;39007;-78
2022/03/13 11:59:40;;;;;;;10.95;8.15;;;15.70;99.90;;;;;;4967855;28;37688;-80
2022/03/13 12:02:12;;;;;;;9.70;7.63;;;15.80;99.90;;;;;;4983188;28;39176;-79
2022/03/13 12:04:39;;;;;;;7.82;6.40;;;16.00;99.90;;;;;;4953389;28;38456;-80
2022/03/13 12:07:28;;;;;;;10.93;7.60;;;16.10;99.90;;;;;;4986542;28;39481;-80
2022/03/13 12:09:54;;;;;;;10.73;7.82;;;16.00;99.90;;;;;;4971945;28;39066;-80
2022/03/13 12:12:20;;;;;;;10.50;7.32;;;16.10;99.90;;;;;;4969833;28;39088;-82
2022/03/13 12:15:05;;;;;;;7.32;6.43;;;16.30;99.90;;;;;;4985660;28;37816;-81
2022/03/13 12:17:45;;;;;;;8.55;6.82;;;16.40;99.90;;;;;;5000202;28;49663;-81
2022/03/13 12:20:24;;;;;;;8.55;6.50;;;15.90;99.90;;;;;;4973484;28;38158;-80
2022/03/13 12:22:53;;;;;;;7.65;6.38;;;15.90;99.90;;;;;;5003185;28;38984;-82
2022/03/13 12:25:25;;;;;;;11.25;6.22;;;15.80;99.90;;;;;;4978218;28;39331;-80
2022/03/13 12:27:51;;;;;;;6.65;5.65;;;15.90;99.90;;;;;;5007317;28;37735;-81
2022/03/13 12:30:29;;;;;;;7.70;6.38;;;15.70;99.90;;;;;;5007963;28;38590;-81
2022/03/13 12:33:00;;;;;;;8.20;6.00;;;15.70;99.90;;;;;;4999321;28;40027;-81
2022/03/13 12:35:28;;;;;;;8.07;5.78;;;15.70;99.90;;;;;;5002572;28;37937;-81
2022/03/13 12:38:03;;;;;;;6.70;5.25;;;15.70;99.90;;;;;;5001012;28;37321;-80
2022/03/13 12:40:30;;;;;;;6.65;4.80;;;15.90;99.90;;;;;;4976048;28;47003;-81
2022/03/13 12:42:59;;;;;;;7.35;5.82;;;16.00;99.90;;;;;;4992301;28;37298;-81
2022/03/13 12:45:27;;;;;;;9.07;6.30;;;16.20;99.90;;;;;;4999184;28;37960;-80
2022/03/13 12:47:59;;;;;;;6.55;5.13;;;16.10;99.90;;;;;;5000898;28;37213;-81